Time;durP1;ratioP1;P1;durP2;ratioP2;P2;SDS_P1;SDS_P2;PMS_P1;PMS_P2;Temp;Humidity;BMP_temperature;BMP_pressure;BME280_temperature;BME280_humidity;BME280_pressure;Samples;Min_cycle;Max_cycle;Signal;HPM_P1;HPM_P2
2023/07/11 00:00:14;;;;;;;;;11.00;11.00;;;;;20.82;93.83;98392.44;4913561;28;102097;-81
2023/07/11 00:02:42;;;;;;;;;11.67;10.67;;;;;20.86;93.76;98391.63;4917373;28;102431;-80
2023/07/11 00:05:12;;;;;;;;;11.33;11.33;;;;;20.82;93.75;98389.69;4904311;28;102433;-82
2023/07/11 00:07:41;;;;;;;;;9.00;9.00;;;;;20.86;93.65;98396.31;4912306;28;108775;-83
2023/07/11 00:10:11;;;;;;;;;14.33;14.33;;;;;20.69;93.92;98377.31;4906509;28;102432;-83
2023/07/11 00:12:41;;;;;;;;;10.00;8.00;;;;;20.83;93.36;98396.84;4898381;28;102697;-82
2023/07/11 00:15:11;;;;;;;;;10.67;9.00;;;;;20.83;93.76;98399.59;4904572;28;108158;-80
2023/07/11 00:17:39;;;;;;;;;9.67;9.33;;;;;20.86;93.94;98399.88;4916652;28;107007;-83
2023/07/11 00:20:11;;;;;;;;;10.33;10.33;;;;;20.87;93.87;98397.97;4906697;28;102566;-82
2023/07/11 00:22:38;;;;;;;;;15.33;14.67;;;;;20.74;94.72;98407.56;4914077;28;103918;-79
2023/07/11 00:25:06;;;;;;;;;11.00;10.33;;;;;20.58;94.33;98372.09;4913994;28;102000;-81
2023/07/11 00:27:33;;;;;;;;;10.67;9.67;;;;;20.80;94.67;98422.16;4916401;28;106722;-81
2023/07/11 00:30:00;;;;;;;;;14.00;13.33;;;;;20.77;94.71;98411.69;4897957;28;104316;-80
2023/07/11 00:32:27;;;;;;;;;12.33;11.00;;;;;20.66;94.62;98399.84;4915882;28;102403;-81
2023/07/11 00:34:54;;;;;;;;;15.00;12.67;;;;;20.75;94.40;98425.72;4899338;28;103381;-82
2023/07/11 00:37:22;;;;;;;;;13.33;12.00;;;;;20.68;94.97;98418.78;4904013;28;104083;-81
2023/07/11 00:39:49;;;;;;;;;11.67;10.33;;;;;20.52;94.89;98389.63;4900796;28;103918;-81
2023/07/11 00:42:16;;;;;;;;;11.67;11.00;;;;;20.55;94.79;98400.06;4877184;28;103501;-81
2023/07/11 00:44:56;;;;;;;;;12.67;11.33;;;;;20.69;94.87;98407.53;4892761;28;103859;-81
2023/07/11 00:47:26;;;;;;;;;15.67;14.67;;;;;20.56;95.08;98383.34;4902461;28;104030;-82
2023/07/11 00:50:00;;;;;;;;;10.67;9.33;;;;;20.57;95.21;98398.72;4915466;28;102706;-83
2023/07/11 00:52:28;;;;;;;;;18.00;17.00;;;;;20.43;96.04;98398.41;4904813;28;102432;-83
2023/07/11 00:55:04;;;;;;;;;19.33;18.33;;;;;20.09;96.37;98353.19;4911037;28;105652;-83
2023/07/11 00:57:36;;;;;;;;;19.67;17.67;;;;;20.33;96.70;98401.13;4901309;28;103119;-82
2023/07/11 01:00:05;;;;;;;;;14.67;14.00;;;;;20.30;97.18;98396.16;4895232;28;103549;-82
2023/07/11 01:02:33;;;;;;;;;16.67;13.67;;;;;20.26;97.10;98414.22;4910699;28;103440;-82
2023/07/11 01:05:01;;;;;;;;;18.50;16.50;;;;;20.12;97.65;98413.06;4911091;28;102570;-81
2023/07/11 01:07:34;;;;;;;;;29.75;28.00;;;;;19.97;98.00;98418.47;4906444;28;103963;-84
2023/07/11 01:10:01;;;;;;;;;22.00;20.75;;;;;20.02;97.97;98410.28;4908102;28;102427;-82
2023/07/11 01:12:28;;;;;;;;;23.50;22.75;;;;;20.03;97.70;98414.69;4904576;28;102116;-84
2023/07/11 01:14:56;;;;;;;;;22.50;22.00;;;;;20.02;98.10;98410.28;4889203;28;102465;-84
2023/07/11 01:17:33;;;;;;;;;20.50;20.00;;;;;20.00;97.71;98395.97;4908490;28;104085;-81
2023/07/11 01:20:04;;;;;;;;;28.50;28.25;;;;;19.85;98.98;98404.97;4907341;28;107571;-82
2023/07/11 01:22:33;;;;;;;;;27.50;26.50;;;;;19.83;99.19;98412.63;4903629;28;107632;-83
2023/07/11 01:25:13;;;;;;;;;18.50;17.50;;;;;19.87;99.09;98401.94;4906866;28;102090;-83
2023/07/11 01:27:45;;;;;;;;;21.25;18.50;;;;;19.79;99.40;98402.44;4873603;28;108994;-82
2023/07/11 01:30:16;;;;;;;;;20.75;20.75;;;;;19.71;99.81;98394.72;4909800;28;102094;-81
2023/07/11 01:32:44;;;;;;;;;21.25;19.00;;;;;19.45;99.52;98345.16;4916149;28;102060;-82
2023/07/11 01:35:11;;;;;;;;;19.33;17.00;;;;;19.85;99.44;98404.16;4893339;28;104161;-82
2023/07/11 01:37:38;;;;;;;;;19.25;18.50;;;;;19.67;99.61;98390.84;4914261;28;103886;-82
2023/07/11 01:40:07;;;;;;;;;22.50;20.00;;;;;19.75;99.76;98404.06;4910762;28;102722;-82
2023/07/11 01:42:35;;;;;;;;;27.00;24.00;;;;;19.49;100.00;98397.59;4908536;28;103688;-83
2023/07/11 01:45:03;;;;;;;;;25.25;25.00;;;;;19.48;100.00;98388.53;4894929;28;102119;-83
2023/07/11 01:47:30;;;;;;;;;26.00;24.50;;;;;19.48;100.00;98404.16;4909764;28;104122;-83
2023/07/11 01:49:57;;;;;;;;;20.25;20.25;;;;;19.53;100.00;98413.25;4913534;28;105396;-83
2023/07/11 01:52:25;;;;;;;;;21.00;19.75;;;;;19.39;100.00;98395.56;4911462;28;102288;-82
2023/07/11 01:54:52;;;;;;;;;22.25;20.50;;;;;19.52;100.00;98405.28;4900450;28;102616;-81
2023/07/11 01:57:19;;;;;;;;;15.50;15.50;;;;;19.35;99.71;98388.13;4916962;28;104213;-83
2023/07/11 01:59:46;;;;;;;;;20.00;18.00;;;;;19.42;99.79;98411.50;4915305;28;102880;-82
2023/07/11 02:02:13;;;;;;;;;23.75;21.75;;;;;19.37;100.00;98432.56;4923549;28;102101;-82
2023/07/11 02:04:44;;;;;;;;;21.00;20.75;;;;;19.24;100.00;98422.84;4907056;28;102533;-83
2023/07/11 02:07:11;;;;;;;;;20.25;20.00;;;;;19.28;100.00;98423.97;4916689;28;104223;-81
2023/07/11 02:09:38;;;;;;;;;29.25;27.25;;;;;19.20;100.00;98440.09;4909329;28;102159;-83
2023/07/11 02:12:06;;;;;;;;;21.75;21.00;;;;;19.18;100.00;98410.22;4918533;28;102421;-81
2023/07/11 02:14:36;;;;;;;;;25.50;21.50;;;;;19.19;100.00;98433.78;4916733;28;102316;-82
2023/07/11 02:17:03;;;;;;;;;17.50;17.00;;;;;19.11;100.00;98423.28;4914992;28;106658;-82
2023/07/11 02:19:31;;;;;;;;;23.25;22.25;;;;;19.10;100.00;98435.34;4899459;28;103773;-84
2023/07/11 02:21:58;;;;;;;;;29.00;26.00;;;;;19.07;100.00;98436.69;4915000;28;101956;-83
2023/07/11 02:24:25;;;;;;;;;20.75;19.75;;;;;19.03;100.00;98445.69;4907757;28;102485;-81
2023/07/11 02:26:52;;;;;;;;;23.25;22.50;;;;;18.92;100.00;98427.47;4901882;28;104455;-87
2023/07/11 02:29:19;;;;;;;;;23.25;21.50;;;;;18.90;100.00;98429.66;4912208;28;103385;-84
2023/07/11 02:31:46;;;;;;;;;20.50;20.00;;;;;18.98;100.00;98440.16;4916202;28;102320;-84
2023/07/11 02:34:14;;;;;;;;;26.00;24.75;;;;;18.83;100.00;98445.47;4914878;28;102072;-88
2023/07/11 02:36:41;;;;;;;;;23.75;23.00;;;;;18.92;99.77;98443.91;4921345;28;107360;-81
2023/07/11 02:39:08;;;;;;;;;23.75;20.75;;;;;18.81;100.00;98434.78;4914132;28;103678;-82
2023/07/11 02:41:35;;;;;;;;;23.25;22.25;;;;;18.67;100.00;98436.28;4916578;28;102415;-83
2023/07/11 02:44:02;;;;;;;;;27.50;24.75;;;;;18.73;100.00;98448.13;4913929;28;102276;-81
2023/07/11 02:46:30;;;;;;;;;19.00;17.00;;;;;18.77;100.00;98438.31;4917832;28;104019;-84
2023/07/11 02:48:57;;;;;;;;;18.75;18.25;;;;;18.82;99.85;98439.19;4912104;28;102410;-82
2023/07/11 02:51:24;;;;;;;;;17.50;16.75;;;;;18.83;100.00;98456.44;4913223;28;102493;-81
2023/07/11 02:53:51;;;;;;;;;25.75;24.00;;;;;18.75;100.00;98441.28;4913737;28;102632;-83
2023/07/11 02:56:19;;;;;;;;;18.50;18.00;;;;;18.68;100.00;98443.41;4864823;28;104133;-81
2023/07/11 02:58:50;;;;;;;;;22.75;20.00;;;;;18.81;100.00;98453.13;4792340;28;105899;-84
2023/07/11 03:01:17;;;;;;;;;21.25;18.25;;;;;18.73;100.00;98444.28;4924633;28;102450;-80
2023/07/11 03:03:45;;;;;;;;;13.25;13.25;;;;;18.77;100.00;98454.75;4926068;28;101930;-82
2023/07/11 03:06:12;;;;;;;;;14.50;13.75;;;;;18.62;100.00;98438.94;4920686;28;108648;-82
2023/07/11 03:08:39;;;;;;;;;14.00;14.00;;;;;18.69;100.00;98456.84;4923413;28;102319;-81
2023/07/11 03:11:06;;;;;;;;;16.50;15.75;;;;;18.36;100.00;98415.91;4924987;28;102091;-84
2023/07/11 03:13:33;;;;;;;;;27.75;27.25;;;;;18.31;100.00;98432.25;4923705;28;102448;-83
2023/07/11 03:16:02;;;;;;;;;20.25;20.25;;;;;18.52;100.00;98433.31;4922245;28;104179;-80
2023/07/11 03:18:32;;;;;;;;;16.00;16.00;;;;;18.60;100.00;98452.06;4897999;28;102573;-83
2023/07/11 03:21:00;;;;;;;;;22.50;20.00;;;;;18.53;100.00;98454.19;4885217;28;102306;-83
2023/07/11 03:23:28;;;;;;;;;22.50;22.50;;;;;18.48;100.00;98465.03;4922700;28;102785;-81
2023/07/11 03:25:56;;;;;;;;;20.00;19.00;;;;;18.48;100.00;98454.91;4928450;28;103970;-82
2023/07/11 03:28:23;;;;;;;;;17.00;16.00;;;;;18.53;100.00;98435.84;4924088;28;102568;-81
2023/07/11 03:30:51;;;;;;;;;14.00;13.00;;;;;18.52;100.00;98431.41;4926628;28;102407;-81
2023/07/11 03:33:19;;;;;;;;;10.00;10.00;;;;;18.70;100.00;98453.00;4930535;28;102533;-82
2023/07/11 03:35:52;;;;;;;;;20.75;19.50;;;;;18.62;100.00;98453.47;4928434;28;108683;-81
2023/07/11 03:38:19;;;;;;;;;27.75;25.00;;;;;18.49;100.00;98453.84;4926251;28;102436;-82
2023/07/11 03:40:46;;;;;;;;;19.00;18.00;;;;;18.62;100.00;98460.88;4929211;28;102585;-82
2023/07/11 03:43:14;;;;;;;;;17.25;17.00;;;;;18.68;99.84;98468.06;4927459;28;102229;-83
2023/07/11 03:45:46;;;;;;;;;25.50;24.50;;;;;18.47;100.00;98475.16;4924627;28;107453;-83
2023/07/11 03:48:31;;;;;;;;;18.00;17.33;;;;;18.36;99.75;98446.00;4925608;28;102542;-81
2023/07/11 03:50:58;;;;;;;;;19.25;18.50;;;;;18.45;100.00;98471.88;4927775;28;102452;-82
2023/07/11 03:53:25;;;;;;;;;14.50;12.75;;;;;18.59;100.00;98477.81;4908916;28;102420;-82
2023/07/11 03:55:52;;;;;;;;;18.75;16.50;;;;;18.48;99.35;98452.19;4891043;28;104249;-82
2023/07/11 03:58:19;;;;;;;;;19.50;19.00;;;;;18.57;99.29;98485.44;4926888;28;102165;-83
2023/07/11 04:00:46;;;;;;;;;17.50;16.50;;;;;18.57;99.50;98478.06;4928587;28;101986;-82
2023/07/11 04:03:13;;;;;;;;;16.00;15.50;;;;;18.67;99.04;98478.19;4929046;28;102168;-83
2023/07/11 04:05:42;;;;;;;;;24.75;23.00;;;;;18.54;100.00;98480.50;4929186;28;103375;-81
2023/07/11 04:08:09;;;;;;;;;23.00;20.75;;;;;18.51;100.00;98486.41;4909399;28;102137;-81
2023/07/11 04:10:36;;;;;;;;;16.75;16.00;;;;;18.59;99.30;98488.78;4916492;28;102119;-81
2023/07/11 04:13:03;;;;;;;;;21.25;20.75;;;;;18.49;99.83;98497.66;4919575;28;102377;-82
2023/07/11 04:15:30;;;;;;;;;18.25;16.50;;;;;18.57;98.84;98489.00;4891404;28;103415;-84
2023/07/11 04:17:57;;;;;;;;;14.00;13.50;;;;;18.57;99.13;98486.28;4916064;28;102506;-83
2023/07/11 04:20:24;;;;;;;;;16.25;15.50;;;;;18.61;98.62;98484.69;4917267;28;101988;-82
2023/07/11 04:22:51;;;;;;;;;17.00;15.25;;;;;18.53;97.53;98473.34;4918629;28;102681;-83
2023/07/11 04:25:19;;;;;;;;;14.00;13.75;;;;;18.65;97.84;98493.22;4931100;28;103754;-83
2023/07/11 04:27:46;;;;;;;;;18.00;14.75;;;;;18.59;98.41;98494.25;4918062;28;102343;-82
2023/07/11 04:30:13;;;;;;;;;15.75;14.75;;;;;18.66;97.68;98495.69;4915382;28;104124;-82
2023/07/11 04:32:40;;;;;;;;;14.25;12.50;;;;;18.56;98.59;98481.88;4919517;28;102269;-82
2023/07/11 04:35:13;;;;;;;;;18.00;16.00;;;;;18.47;98.69;98488.00;4912442;28;108839;-85
2023/07/11 04:37:40;;;;;;;;;12.00;10.67;;;;;18.62;97.78;98494.56;4899122;28;102527;-82
2023/07/11 04:40:09;;;;;;;;;12.00;11.50;;;;;18.61;97.15;98481.09;4912763;28;104795;-82
2023/07/11 04:42:36;;;;;;;;;12.00;11.50;;;;;18.66;97.18;98497.59;4921641;28;102684;-82
2023/07/11 04:45:05;;;;;;;;;15.00;14.00;;;;;18.62;97.46;98488.25;4909945;28;103967;-82
2023/07/11 04:47:32;;;;;;;;;16.75;15.50;;;;;18.66;98.07;98506.66;4902287;28;102351;-82
2023/07/11 04:50:00;;;;;;;;;14.75;14.00;;;;;18.67;96.74;98497.38;4901664;28;102090;-82
2023/07/11 04:52:27;;;;;;;;;17.00;13.75;;;;;18.88;96.49;98503.91;4916103;28;102068;-80
2023/07/11 04:54:54;;;;;;;;;12.25;12.25;;;;;19.17;95.98;98513.53;4910778;28;104249;-81
2023/07/11 04:57:21;;;;;;;;;15.25;15.25;;;;;19.34;93.72;98510.69;4915392;28;103689;-82
2023/07/11 04:59:49;;;;;;;;;14.00;13.50;;;;;19.49;92.90;98494.41;4914068;28;102061;-81
2023/07/11 05:02:16;;;;;;;;;12.67;12.00;;;;;19.76;91.38;98490.78;4916000;28;103949;-87
2023/07/11 05:04:43;;;;;;;;;13.67;12.67;;;;;19.60;91.39;98492.56;4895786;28;111264;-82
2023/07/11 05:07:10;;;;;;;;;18.50;17.25;;;;;19.64;90.75;98507.41;4907756;28;103675;-85
2023/07/11 05:09:38;;;;;;;;;18.75;17.75;;;;;19.62;90.48;98517.84;4920993;28;102410;-85
2023/07/11 05:12:24;;;;;;;;;18.50;16.75;;;;;19.56;91.33;98500.50;4917223;28;102292;-82
2023/07/11 05:14:51;;;;;;;;;15.50;15.00;;;;;19.52;90.27;98506.78;4912802;28;104045;-84
2023/07/11 05:17:18;;;;;;;;;16.75;15.75;;;;;19.89;90.08;98526.00;4921825;28;105263;-83
2023/07/11 05:19:45;;;;;;;;;18.00;17.00;;;;;19.71;89.49;98512.69;4900997;28;102344;-83
2023/07/11 05:22:12;;;;;;;;;14.67;14.67;;;;;20.11;88.90;98532.22;4923107;28;104606;-83
2023/07/11 05:24:39;;;;;;;;;16.33;14.67;;;;;20.15;86.63;98533.31;4921854;28;107348;-83
2023/07/11 05:27:06;;;;;;;;;17.75;17.00;;;;;20.32;87.41;98534.00;4903820;28;102159;-81
2023/07/11 05:29:35;;;;;;;;;15.00;14.00;;;;;20.57;84.93;98516.84;4923332;28;102292;-84
2023/07/11 05:32:03;;;;;;;;;17.00;16.25;;;;;20.28;85.53;98510.91;4916755;28;103933;-83
2023/07/11 05:34:30;;;;;;;;;15.33;14.00;;;;;20.20;86.73;98532.53;4891355;28;104155;-84
2023/07/11 05:37:00;;;;;;;;;22.25;21.50;;;;;20.06;86.11;98526.69;4903520;28;102394;-83
2023/07/11 05:39:27;;;;;;;;;18.00;17.00;;;;;19.92;86.11;98518.06;4920204;28;106679;-83
2023/07/11 05:41:57;;;;;;;;;13.67;11.67;;;;;20.19;86.14;98541.84;4918533;28;101927;-81
2023/07/11 05:44:25;;;;;;;;;16.67;14.67;;;;;19.96;86.83;98526.59;4916888;28;103026;-85
2023/07/11 05:46:52;;;;;;;;;23.00;20.50;;;;;19.69;88.69;98536.81;4897976;28;103166;-87
2023/07/11 05:49:19;;;;;;;;;20.00;18.67;;;;;19.99;87.80;98517.84;4902779;28;102306;-85
2023/07/11 05:51:47;;;;;;;;;21.00;18.50;;;;;19.93;87.69;98524.38;4918874;28;103300;-83
2023/07/11 05:54:14;;;;;;;;;17.33;16.33;;;;;20.34;85.87;98533.75;4921035;28;107916;-83
2023/07/11 05:56:41;;;;;;;;;14.00;14.00;;;;;20.46;84.93;98532.44;4923994;28;102307;-81
2023/07/11 05:59:08;;;;;;;;;18.00;17.67;;;;;20.79;82.62;98530.41;4920391;28;102090;-86
2023/07/11 06:01:36;;;;;;;;;17.33;16.33;;;;;20.77;82.73;98533.41;4905243;28;102305;-83
2023/07/11 06:04:10;;;;;;;;;20.33;18.00;;;;;20.77;83.13;98538.09;4891858;28;104318;-81
2023/07/11 06:06:42;;;;;;;;;18.33;17.33;;;;;20.72;82.36;98530.66;4916758;28;102631;-80
2023/07/11 06:09:15;;;;;;;;;17.00;16.67;;;;;20.75;83.24;98523.81;4920690;28;101936;-82
2023/07/11 06:11:44;;;;;;;;;21.67;20.00;;;;;21.03;83.03;98537.09;4925844;28;109408;-83
2023/07/11 06:14:11;;;;;;;;;21.67;17.00;;;;;20.73;82.82;98523.22;4917792;28;104360;-82
2023/07/11 06:16:42;;;;;;;;;23.25;23.25;;;;;20.67;84.39;98538.06;4916928;28;103606;-85
2023/07/11 06:19:10;;;;;;;;;18.00;18.00;;;;;20.62;83.09;98502.31;4920697;28;102326;-84
2023/07/11 06:21:37;;;;;;;;;15.00;13.33;;;;;21.16;80.92;98502.81;4918754;28;102552;-82
2023/07/11 06:24:04;;;;;;;;;14.67;12.00;;;;;21.49;78.81;98506.97;4918763;28;103670;-81
2023/07/11 06:26:31;;;;;;;;;14.67;13.00;;;;;22.02;78.51;98533.97;4920161;28;102657;-84
2023/07/11 06:28:58;;;;;;;;;13.33;13.00;;;;;22.14;76.22;98541.97;4921430;28;102445;-82
2023/07/11 06:31:25;;;;;;;;;12.00;12.00;;;;;22.18;75.35;98521.84;4925185;28;102239;-83
2023/07/11 06:33:52;;;;;;;;;17.67;17.67;;;;;21.81;77.20;98530.38;4917337;28;104199;-84
2023/07/11 06:36:19;;;;;;;;;18.67;18.00;;;;;21.85;76.90;98527.06;4918929;28;102474;-83
2023/07/11 06:38:46;;;;;;;;;17.00;17.00;;;;;21.85;77.48;98533.41;4917335;28;102332;-82
2023/07/11 06:41:13;;;;;;;;;21.33;20.00;;;;;21.64;77.39;98512.47;4924191;28;102277;-84
2023/07/11 06:43:41;;;;;;;;;17.67;16.00;;;;;22.17;76.61;98533.97;4921523;28;108943;-81
2023/07/11 06:46:09;;;;;;;;;15.00;15.00;;;;;22.40;73.76;98528.97;4921016;28;102372;-83
2023/07/11 06:48:36;;;;;;;;;15.33;12.67;;;;;22.55;74.63;98526.16;4901950;28;102291;-85
2023/07/11 06:51:04;;;;;;;;;14.00;14.00;;;;;22.43;73.82;98504.41;4921178;28;102277;-81
2023/07/11 06:53:34;;;;;;;;;13.33;12.67;;;;;22.60;72.45;98528.91;4900057;28;104176;-81
2023/07/11 06:56:01;;;;;;;;;16.00;14.33;;;;;22.59;72.68;98519.81;4919358;28;102602;-84
2023/07/11 06:58:29;;;;;;;;;18.67;18.00;;;;;22.20;73.96;98505.84;4915202;28;102386;-83
2023/07/11 07:01:05;;;;;;;;;15.67;15.67;;;;;21.63;75.26;98508.06;4925066;28;103079;-81
2023/07/11 07:03:42;;;;;;;;;16.33;16.00;;;;;22.20;74.59;98527.88;4922115;28;107758;-83
2023/07/11 07:06:12;;;;;;;;;19.00;17.67;;;;;22.35;73.58;98526.22;4918910;28;102906;-85
2023/07/11 07:08:40;;;;;;;;;17.67;15.67;;;;;22.31;74.61;98522.38;4922450;28;102001;-82
2023/07/11 07:11:07;;;;;;;;;13.00;13.00;;;;;22.35;74.44;98516.03;4931545;28;102323;-83
2023/07/11 07:13:36;;;;;;;;;21.00;19.33;;;;;21.75;75.58;98539.72;4922654;28;104294;-82
2023/07/11 07:16:11;;;;;;;;;15.67;15.00;;;;;22.38;74.79;98537.50;4925468;28;102142;-82
2023/07/11 07:18:41;;;;;;;;;18.00;17.67;;;;;22.13;74.47;98516.34;4926229;28;102323;-83
2023/07/11 07:21:09;;;;;;;;;14.33;13.00;;;;;22.46;74.19;98534.19;4923847;28;110808;-85
2023/07/11 07:23:37;;;;;;;;;17.33;16.00;;;;;22.09;73.11;98517.19;4922635;28;104121;-83
2023/07/11 07:26:05;;;;;;;;;14.67;14.00;;;;;22.38;72.48;98531.19;4903405;28;102359;-83
2023/07/11 07:28:34;;;;;;;;;16.00;15.33;;;;;22.16;72.31;98506.69;4904141;28;102470;-82
2023/07/11 07:31:05;;;;;;;;;13.00;13.00;;;;;22.55;73.04;98515.16;4927250;28;102022;-81
2023/07/11 07:33:33;;;;;;;;;18.33;18.00;;;;;21.96;73.59;98526.84;4920089;28;103265;-82
2023/07/11 07:36:03;;;;;;;;;15.67;15.67;;;;;21.90;72.94;98486.59;4922985;28;102013;-83
2023/07/11 07:38:31;;;;;;;;;14.00;13.33;;;;;22.48;72.72;98531.13;4920504;28;102324;-85
2023/07/11 07:41:04;;;;;;;;;16.33;15.00;;;;;21.95;73.22;98505.06;4921406;28;102407;-84
2023/07/11 07:43:32;;;;;;;;;15.00;13.00;;;;;22.18;73.10;98513.59;4903837;28;105374;-82
2023/07/11 07:46:01;;;;;;;;;13.67;12.67;;;;;22.25;72.67;98485.72;4920306;28;102570;-83
2023/07/11 07:48:29;;;;;;;;;15.00;15.00;;;;;22.24;72.47;98506.94;4924304;28;105242;-83
2023/07/11 07:51:04;;;;;;;;;17.67;16.00;;;;;22.36;72.49;98497.56;4925078;28;102034;-83
2023/07/11 07:53:32;;;;;;;;;18.00;17.33;;;;;22.41;72.09;98525.94;4920329;28;105132;-83
2023/07/11 07:56:06;;;;;;;;;15.67;13.00;;;;;22.50;72.56;98482.09;4908008;28;101923;-82
2023/07/11 07:58:33;;;;;;;;;10.00;9.67;;;;;23.04;71.46;98502.28;4919018;28;102232;-82
2023/07/11 08:01:05;;;;;;;;;10.00;10.00;;;;;23.51;71.03;98523.81;4922191;28;103741;-80
2023/07/11 08:03:35;;;;;;;;;15.00;13.00;;;;;23.54;68.54;98522.41;4919427;28;105029;-82
2023/07/11 08:06:04;;;;;;;;;13.00;10.67;;;;;23.66;67.86;98497.19;4912329;28;102542;-83
2023/07/11 08:08:43;;;;;;;;;15.33;15.00;;;;;23.41;66.52;98499.03;4922886;28;101982;-80
2023/07/11 08:11:11;;;;;;;;;13.00;13.00;;;;;23.62;67.39;98516.28;4927663;28;103051;-86
2023/07/11 08:13:38;;;;;;;;;15.00;15.00;;;;;23.22;67.65;98511.84;4921610;28;108618;-82
2023/07/11 08:16:09;;;;;;;;;15.33;14.00;;;;;23.25;70.29;98513.19;4919581;28;102325;-81
2023/07/11 08:18:55;;;;;;;;;14.00;13.00;;;;;23.49;67.65;98511.41;4915422;28;102075;-81
2023/07/11 08:21:22;;;;;;;;;16.33;15.33;;;;;23.46;66.91;98520.28;4921416;28;106361;-82
2023/07/11 08:23:50;;;;;;;;;15.33;14.67;;;;;23.58;67.05;98523.50;4908598;28;105323;-81
2023/07/11 08:26:17;;;;;;;;;17.33;17.33;;;;;23.46;68.14;98517.50;4903216;28;102113;-82
2023/07/11 08:28:44;;;;;;;;;16.00;15.00;;;;;23.63;66.87;98526.22;4922875;28;102436;-81
2023/07/11 08:31:11;;;;;;;;;13.00;12.33;;;;;23.58;67.23;98523.50;4922603;28;101941;-80
2023/07/11 08:33:38;;;;;;;;;13.67;12.67;;;;;23.72;65.04;98502.41;4902120;28;104055;-83
2023/07/11 08:36:05;;;;;;;;;11.00;11.00;;;;;23.81;65.37;98505.38;4919321;28;101962;-83
2023/07/11 08:38:32;;;;;;;;;19.00;16.00;;;;;23.43;66.16;98524.38;4921717;28;102487;-82
2023/07/11 08:41:33;;;;;;;;;15.00;14.00;;;;;23.70;66.17;98526.69;4921880;28;102715;-81
2023/07/11 08:44:09;;;;;;;;;17.67;16.67;;;;;23.07;65.27;98489.84;4895058;28;107984;-80
2023/07/11 08:47:00;;;;;;;;;13.00;12.33;;;;;23.41;67.95;98520.28;4903530;28;103131;-84
2023/07/11 08:49:50;;;;;;;;;12.00;12.00;;;;;23.93;65.72;98511.31;4919331;28;102567;-87
2023/07/11 08:52:20;;;;;;;;;16.67;16.67;;;;;23.78;64.59;98531.59;4900765;28;105728;-82
2023/07/11 08:55:03;;;;;;;;;10.67;10.67;;;;;24.15;64.74;98519.97;4921667;28;108580;-82
2023/07/11 08:57:36;;;;;;;;;10.33;9.33;;;;;24.36;64.83;98526.94;4918080;28;101954;-81
2023/07/11 09:00:12;;;;;;;;;16.00;14.33;;;;;24.48;64.77;98515.50;4916565;28;102301;-82
2023/07/11 09:03:00;;;;;;;;;14.00;14.00;;;;;24.14;62.85;98515.53;4922320;28;102740;-83
2023/07/11 09:06:04;;;;;;;;;18.67;17.67;;;;;23.57;65.46;98505.28;4916505;28;107676;-83
2023/07/11 09:08:37;;;;;;;;;17.00;16.00;;;;;23.73;67.15;98526.13;4910052;28;102115;-83
2023/07/11 09:11:25;;;;;;;;;14.00;11.67;;;;;24.31;63.42;98515.16;4917293;28;102355;-83
2023/07/11 09:14:16;;;;;;;;;12.33;12.33;;;;;24.31;63.56;98485.56;4921396;28;102260;-81
2023/07/11 09:17:14;;;;;;;;;15.00;14.00;;;;;24.77;64.08;98520.97;4921059;28;107837;-83
2023/07/11 09:20:06;;;;;;;;;14.67;14.00;;;;;24.80;64.00;98529.53;4919016;28;102236;-80
2023/07/11 09:23:00;;;;;;;;;13.67;13.67;;;;;24.56;61.12;98506.56;4916082;28;104719;-83
2023/07/11 09:25:40;;;;;;;;;13.33;12.00;;;;;24.76;61.84;98528.47;4922911;28;102377;-83
2023/07/11 09:28:24;;;;;;;;;14.00;13.67;;;;;24.47;63.19;98497.28;4920558;28;104338;-86
2023/07/11 09:31:01;;;;;;;;;11.67;11.67;;;;;24.25;62.22;98532.88;4921870;28;102094;-81
2023/07/11 09:33:35;;;;;;;;;14.67;13.67;;;;;23.75;62.91;98490.78;4922000;28;102421;-83
2023/07/11 09:36:20;;;;;;;;;12.67;12.67;;;;;24.55;64.06;98526.19;4922358;28;102488;-84
2023/07/11 09:39:10;;;;;;;;;15.67;14.67;;;;;23.66;63.72;98477.88;4921683;28;108921;-87
2023/07/11 09:41:51;;;;;;;;;14.00;13.00;;;;;24.25;61.33;98522.66;4921910;28;102483;-81
2023/07/11 09:44:18;;;;;;;;;14.00;13.00;;;;;24.39;57.47;98511.75;4912801;28;102403;-80
2023/07/11 09:46:46;;;;;;;;;10.67;9.67;;;;;24.94;58.42;98517.75;4924192;28;102058;-80
2023/07/11 09:49:23;;;;;;;;;13.00;12.33;;;;;24.37;59.69;98478.03;4919560;28;104201;-82
2023/07/11 09:51:58;;;;;;;;;16.00;16.00;;;;;24.51;61.09;98509.38;4922738;28;102252;-81
2023/07/11 09:54:28;;;;;;;;;12.67;12.67;;;;;24.50;60.60;98501.38;4922436;28;102047;-81
2023/07/11 09:56:58;;;;;;;;;12.33;11.67;;;;;25.01;60.16;98524.56;4920241;28;109968;-83
2023/07/11 09:59:27;;;;;;;;;11.33;10.67;;;;;25.37;59.51;98522.13;4922339;28;105033;-84
2023/07/11 10:01:56;;;;;;;;;13.00;12.67;;;;;25.35;57.85;98513.31;4917280;28;102128;-82
2023/07/11 10:04:26;;;;;;;;;11.00;10.00;;;;;25.51;58.07;98506.44;4921980;28;104448;-81
2023/07/11 10:06:59;;;;;;;;;15.00;14.33;;;;;25.20;56.73;98519.06;4920531;28;102396;-83
2023/07/11 10:09:44;;;;;;;;;9.67;9.67;;;;;25.27;55.29;98500.97;4920726;28;103058;-80
2023/07/11 10:12:17;;;;;;;;;14.00;13.00;;;;;25.02;57.13;98515.16;4911449;28;102013;-80
2023/07/11 10:14:47;;;;;;;;;10.00;10.00;;;;;25.32;53.30;98497.28;4925669;28;102292;-80
2023/07/11 10:17:34;;;;;;;;;9.00;8.33;;;;;25.80;51.81;98519.31;4920570;28;102759;-80
2023/07/11 10:20:04;;;;;;;;;12.00;12.00;;;;;25.59;53.84;98508.53;4916562;28;109365;-83
2023/07/11 10:22:48;;;;;;;;;13.00;12.00;;;;;25.62;54.91;98524.53;4919415;28;102562;-82
2023/07/11 10:25:26;;;;;;;;;16.67;15.67;;;;;25.50;55.30;98515.84;4923879;28;102127;-82
2023/07/11 10:28:03;;;;;;;;;15.00;13.33;;;;;25.28;53.62;98521.16;4899150;28;104582;-82
2023/07/11 10:30:36;;;;;;;;;11.00;11.00;;;;;25.20;52.03;98483.09;4915602;28;104035;-81
2023/07/11 10:33:23;;;;;;;;;10.33;9.33;;;;;25.59;53.18;98508.53;4921172;28;102104;-82
2023/07/11 10:36:21;;;;;;;;;13.00;12.33;;;;;25.85;50.07;98519.22;4919035;28;103281;-82
2023/07/11 10:39:01;;;;;;;;;10.33;9.33;;;;;25.89;50.46;98528.56;4919770;28;102126;-80
2023/07/11 10:41:33;;;;;;;;;10.67;10.67;;;;;25.84;49.27;98520.34;4918388;28;108729;-80
2023/07/11 10:44:03;;;;;;;;;9.67;9.00;;;;;25.72;50.31;98515.25;4920526;28;105709;-82
2023/07/11 10:46:41;;;;;;;;;9.33;9.33;;;;;25.96;51.04;98507.66;4924217;28;102117;-81
2023/07/11 10:49:25;;;;;;;;;9.00;8.67;;;;;25.81;47.55;98509.84;4921329;28;102036;-81
2023/07/11 10:52:21;;;;;;;;;8.67;7.67;;;;;26.33;46.91;98501.22;4916022;28;108827;-83
2023/07/11 10:55:13;;;;;;;;;6.33;6.00;;;;;25.90;48.19;98519.13;4912623;28;102464;-82
2023/07/11 10:57:52;;;;;;;;;10.33;10.00;;;;;25.33;48.96;98505.31;4916748;28;102366;-82
2023/07/11 11:00:42;;;;;;;;;8.33;8.33;;;;;25.63;47.43;98506.81;4919091;28;102027;-82
2023/07/11 11:03:31;;;;;;;;;7.67;7.00;;;;;25.63;45.61;98504.03;4919817;28;107842;-83
2023/07/11 11:06:26;;;;;;;;;8.00;8.00;;;;;25.97;47.43;98497.41;4922900;28;102284;-83
2023/07/11 11:09:16;;;;;;;;;6.00;6.00;;;;;26.12;48.12;98505.44;4915177;28;104774;-82
2023/07/11 11:12:28;;;;;;;;;12.00;10.33;;;;;25.37;47.42;98502.75;4920940;28;102349;-81
2023/07/11 11:15:13;;;;;;;;;10.00;9.00;;;;;25.07;48.39;98511.50;4805118;28;109756;-83
2023/07/11 11:18:26;;;;;;;;;8.00;8.00;;;;;25.36;47.91;98509.41;4803805;28;102529;-83
2023/07/11 11:21:05;;;;;;;;;8.00;6.33;;;;;25.74;47.64;98502.78;4833757;28;102721;-79
2023/07/11 11:24:01;;;;;;;;;7.00;7.00;;;;;25.55;47.54;98499.19;4830058;28;102364;-81
2023/07/11 11:27:05;;;;;;;;;8.00;8.00;;;;;25.56;46.06;98495.31;4896278;28;108654;-81
2023/07/11 11:30:07;;;;;;;;;6.67;5.67;;;;;25.94;46.31;98509.06;4864645;28;102090;-82